createdAt,value
2022-10-12T00:00:32.513Z,22.05
2022-10-12T00:02:59.358Z,17.52
2022-10-12T00:05:26.219Z,21.52
2022-10-12T00:07:52.951Z,18.10
2022-10-12T00:10:19.690Z,21.30
2022-10-12T00:12:46.437Z,21.85
2022-10-12T00:15:14.641Z,26.73
2022-10-12T00:17:41.363Z,20.98
2022-10-12T00:20:08.919Z,21.60
2022-10-12T00:22:35.819Z,22.38
2022-10-12T00:25:02.563Z,23.58
2022-10-12T00:27:29.279Z,21.48
2022-10-12T00:29:56.014Z,21.55
2022-10-12T00:32:24.118Z,20.08
2022-10-12T00:34:51.084Z,23.88
2022-10-12T00:37:17.788Z,20.75
2022-10-12T00:39:44.535Z,20.73
2022-10-12T00:42:12.079Z,23.67
2022-10-12T00:44:42.281Z,21.55
2022-10-12T00:47:25.721Z,23.75
2022-10-12T00:49:57.373Z,22.90
2022-10-12T00:52:31.323Z,22.23
2022-10-12T00:54:59.195Z,29.42
2022-10-12T00:57:26.039Z,24.20
2022-10-12T00:59:56.026Z,22.80
2022-10-12T01:02:26.077Z,27.75
2022-10-12T01:04:53.270Z,20.42
2022-10-12T01:07:20.122Z,21.40
2022-10-12T01:09:46.909Z,20.10
2022-10-12T01:12:13.804Z,21.13
2022-10-12T01:14:40.535Z,18.48
2022-10-12T01:17:19.037Z,18.95
2022-10-12T01:20:20.675Z,21.85
2022-10-12T01:23:02.791Z,18.83
2022-10-12T01:25:42.755Z,20.42
2022-10-12T01:28:18.408Z,17.45
2022-10-12T01:30:51.495Z,22.15
2022-10-12T01:33:28.015Z,17.70
2022-10-12T01:36:00.705Z,25.17
2022-10-12T01:38:45.487Z,23.33
2022-10-12T01:41:18.144Z,22.38
2022-10-12T01:43:45.978Z,20.63
2022-10-12T01:46:43.689Z,21.10
2022-10-12T01:49:11.713Z,20.75
2022-10-12T01:51:53.604Z,19.73
2022-10-12T01:54:30.347Z,19.30
2022-10-12T01:57:03.164Z,18.63
2022-10-12T01:59:39.472Z,24.05
2022-10-12T02:02:16.439Z,22.33
2022-10-12T02:04:49.243Z,18.52
2022-10-12T02:07:22.274Z,24.13
2022-10-12T02:09:50.311Z,17.77
2022-10-12T02:12:21.140Z,22.38
2022-10-12T02:14:52.367Z,20.63
2022-10-12T02:17:22.831Z,19.85
2022-10-12T02:19:53.595Z,15.52
2022-10-12T02:22:21.183Z,22.13
2022-10-12T02:24:50.928Z,18.20
2022-10-12T02:27:19.907Z,20.45
2022-10-12T02:29:47.997Z,20.60
2022-10-12T02:32:19.395Z,19.85
2022-10-12T02:34:53.930Z,18.33
2022-10-12T02:37:28.222Z,18.83
2022-10-12T02:40:01.957Z,18.38
2022-10-12T02:42:41.877Z,20.38
2022-10-12T02:45:20.480Z,21.30
2022-10-12T02:47:50.589Z,19.17
2022-10-12T02:50:21.189Z,20.90
2022-10-12T02:52:48.906Z,18.75
2022-10-12T02:55:15.997Z,20.10
2022-10-12T02:57:42.740Z,22.05
2022-10-12T03:00:10.757Z,18.98
2022-10-12T03:02:37.494Z,18.50
2022-10-12T03:05:05.025Z,22.52
2022-10-12T03:07:33.147Z,21.48
2022-10-12T03:09:59.885Z,20.85
2022-10-12T03:12:26.598Z,20.00
2022-10-12T03:14:53.340Z,22.60
2022-10-12T03:17:20.049Z,20.05
2022-10-12T03:19:46.776Z,18.17
2022-10-12T03:22:13.519Z,21.85
2022-10-12T03:24:41.570Z,17.90
2022-10-12T03:27:08.622Z,16.42
2022-10-12T03:29:35.395Z,19.58
2022-10-12T03:32:02.125Z,19.48
2022-10-12T03:34:28.895Z,16.20
2022-10-12T03:36:55.633Z,17.50
2022-10-12T03:39:22.487Z,23.67
2022-10-12T03:41:50.602Z,25.60
2022-10-12T03:44:17.453Z,21.60
2022-10-12T03:46:44.166Z,20.60
2022-10-12T03:49:10.942Z,20.65
2022-10-12T03:51:37.809Z,21.58
2022-10-12T03:54:04.829Z,20.70
2022-10-12T03:56:31.584Z,23.20
2022-10-12T03:58:59.671Z,23.40
2022-10-12T04:01:26.494Z,27.75
2022-10-12T04:03:53.255Z,23.45
2022-10-12T04:06:19.965Z,27.38
2022-10-12T04:08:50.619Z,27.17
2022-10-12T04:11:18.003Z,26.42
2022-10-12T04:13:44.738Z,32.20
2022-10-12T04:16:12.925Z,29.40
2022-10-12T04:18:39.636Z,27.35
2022-10-12T04:21:10.670Z,28.98
2022-10-12T04:23:37.378Z,31.35
2022-10-12T04:26:04.222Z,29.75
2022-10-12T04:28:31.052Z,38.78
2022-10-12T04:30:57.887Z,35.42
2022-10-12T04:33:26.018Z,34.25
2022-10-12T04:35:52.889Z,35.45
2022-10-12T04:38:19.630Z,37.35
2022-10-12T04:40:47.169Z,34.60
2022-10-12T04:43:13.977Z,31.65
2022-10-12T04:45:40.766Z,36.83
2022-10-12T04:48:07.553Z,39.47
2022-10-12T04:50:35.731Z,27.10
2022-10-12T04:53:02.530Z,35.00
2022-10-12T04:55:29.245Z,33.20
2022-10-12T04:57:55.980Z,34.85
2022-10-12T05:00:22.699Z,36.20
2022-10-12T05:02:49.419Z,32.25
2022-10-12T05:05:16.367Z,32.70
2022-10-12T05:07:44.455Z,35.83
2022-10-12T05:10:11.209Z,38.85
2022-10-12T05:12:38.246Z,33.00
2022-10-12T05:15:06.039Z,34.33
2022-10-12T05:17:32.828Z,34.42
2022-10-12T05:19:59.564Z,30.15
2022-10-12T05:22:26.353Z,31.73
2022-10-12T05:24:54.448Z,43.05
2022-10-12T05:27:21.210Z,35.47
2022-10-12T05:29:48.010Z,38.15
2022-10-12T05:32:14.795Z,31.42
2022-10-12T05:34:41.655Z,35.15
2022-10-12T05:37:08.411Z,35.88
2022-10-12T05:39:35.115Z,42.83
2022-10-12T05:42:04.117Z,36.83
2022-10-12T05:44:30.850Z,32.80
2022-10-12T05:46:57.717Z,38.95
2022-10-12T05:49:24.607Z,35.63
2022-10-12T05:51:51.369Z,34.38
2022-10-12T05:54:18.261Z,35.60
2022-10-12T05:56:45.032Z,38.13
2022-10-12T05:59:13.299Z,31.65
2022-10-12T06:01:40.203Z,34.30
2022-10-12T06:04:07.137Z,30.45
2022-10-12T06:06:35.035Z,37.10
2022-10-12T06:09:01.915Z,31.45
2022-10-12T06:11:30.417Z,31.85
2022-10-12T06:13:59.483Z,33.28
2022-10-12T06:16:27.556Z,30.35
2022-10-12T06:18:54.322Z,33.00
2022-10-12T06:21:32.911Z,34.70
2022-10-12T06:24:00.571Z,36.47
2022-10-12T06:26:27.346Z,46.00
2022-10-12T06:28:54.220Z,34.00
2022-10-12T06:31:21.013Z,33.70
2022-10-12T06:33:49.153Z,30.63
2022-10-12T06:36:15.882Z,48.05
2022-10-12T06:38:42.666Z,34.35
2022-10-12T06:41:09.399Z,33.00
2022-10-12T06:43:36.265Z,33.83
2022-10-12T06:46:03.267Z,28.48
2022-10-12T06:48:30.373Z,36.83
2022-10-12T06:50:58.460Z,27.48
2022-10-12T06:53:25.295Z,32.53
2022-10-12T06:55:52.052Z,33.03
2022-10-12T06:58:18.759Z,40.95
2022-10-12T07:00:45.526Z,33.97
2022-10-12T07:03:13.321Z,31.77
2022-10-12T07:05:40.119Z,34.22
2022-10-12T07:08:08.206Z,35.15
2022-10-12T07:10:34.938Z,32.88
2022-10-12T07:13:01.726Z,30.55
2022-10-12T07:15:28.465Z,25.83
2022-10-12T07:17:55.200Z,25.40
2022-10-12T07:20:22.070Z,22.63
2022-10-12T07:22:48.806Z,19.30
2022-10-12T07:25:17.073Z,20.75
2022-10-12T07:27:46.838Z,20.52
2022-10-12T07:30:13.682Z,21.73
2022-10-12T07:32:40.590Z,26.10
2022-10-12T07:35:07.883Z,23.50
2022-10-12T07:37:34.638Z,25.95
2022-10-12T07:40:01.509Z,25.17
2022-10-12T07:42:29.582Z,24.05
2022-10-12T07:44:56.302Z,28.42
2022-10-12T07:47:23.055Z,29.33
2022-10-12T07:49:49.777Z,27.52
2022-10-12T07:52:16.511Z,22.60
2022-10-12T07:54:43.271Z,26.27
2022-10-12T07:57:10.047Z,22.15
2022-10-12T07:59:38.148Z,19.30
2022-10-12T08:02:04.944Z,24.25
2022-10-12T08:04:31.755Z,21.00
2022-10-12T08:06:58.466Z,21.08
2022-10-12T08:09:25.232Z,24.75
2022-10-12T08:11:51.947Z,27.50
2022-10-12T08:14:18.687Z,23.15
2022-10-12T08:16:46.758Z,23.83
2022-10-12T08:19:13.850Z,22.48
2022-10-12T08:21:41.018Z,20.85
2022-10-12T08:24:08.588Z,20.00
2022-10-12T08:26:35.427Z,18.75
2022-10-12T08:29:02.770Z,24.25
2022-10-12T08:31:29.645Z,20.92
2022-10-12T08:33:58.508Z,19.98
2022-10-12T08:36:25.390Z,21.35
2022-10-12T08:38:53.678Z,23.73
2022-10-12T08:41:31.351Z,20.50
2022-10-12T08:44:09.652Z,22.92
2022-10-12T08:46:36.502Z,23.80
2022-10-12T08:49:10.174Z,23.67
2022-10-12T08:51:55.572Z,25.95
2022-10-12T08:54:24.810Z,20.75
2022-10-12T08:56:53.877Z,21.35
2022-10-12T08:59:20.832Z,23.02
2022-10-12T09:02:01.689Z,24.33
2022-10-12T09:04:49.882Z,25.17
2022-10-12T09:07:20.416Z,27.92
2022-10-12T09:09:57.197Z,29.50
2022-10-12T09:12:33.515Z,26.77
2022-10-12T09:15:03.709Z,23.02
2022-10-12T09:17:35.396Z,25.88
2022-10-12T09:20:15.666Z,19.75
2022-10-12T09:22:45.167Z,22.52
2022-10-12T09:25:14.078Z,24.50
2022-10-12T09:27:45.279Z,22.90
2022-10-12T09:30:15.121Z,19.42
2022-10-12T09:33:14.591Z,81.03
2022-10-12T09:35:44.017Z,33.53
2022-10-12T09:38:11.155Z,23.05
2022-10-12T09:40:39.608Z,24.55
2022-10-12T09:43:07.516Z,19.55
2022-10-12T09:45:35.157Z,25.38
2022-10-12T09:48:16.959Z,23.08
2022-10-12T09:50:48.802Z,20.55
2022-10-12T09:53:29.878Z,20.20
2022-10-12T09:56:04.014Z,21.20
2022-10-12T10:01:22.211Z,17.58
2022-10-12T10:03:51.187Z,19.92
2022-10-12T10:06:24.801Z,26.90
2022-10-12T10:08:51.659Z,19.95
2022-10-12T10:11:21.916Z,20.27
2022-10-12T10:13:51.541Z,22.95
2022-10-12T10:16:19.717Z,20.65
2022-10-12T10:18:48.886Z,21.38
2022-10-12T10:21:24.454Z,20.52
2022-10-12T10:23:54.691Z,17.73
2022-10-12T10:26:23.270Z,19.48
2022-10-12T10:28:53.517Z,25.23
2022-10-12T10:31:22.401Z,19.10
2022-10-12T10:34:12.428Z,20.48
2022-10-12T10:36:43.949Z,22.10
2022-10-12T10:39:19.785Z,21.98
2022-10-12T10:41:47.146Z,20.15
2022-10-12T10:44:33.500Z,17.35
2022-10-12T10:47:03.103Z,18.45
2022-10-12T10:49:42.315Z,21.63
2022-10-12T10:52:22.235Z,18.88
2022-10-12T10:55:06.835Z,21.20
2022-10-12T10:57:35.572Z,20.98
2022-10-12T11:00:36.796Z,23.17
2022-10-12T11:02:55.106Z,21.08
2022-10-12T11:05:26.736Z,19.20
2022-10-12T11:07:55.371Z,21.80
2022-10-12T11:10:28.362Z,22.40
2022-10-12T11:13:02.274Z,21.48
2022-10-12T11:15:35.523Z,21.77
2022-10-12T11:18:11.715Z,17.52
2022-10-12T11:20:45.632Z,18.20
2022-10-12T11:23:24.339Z,19.10
2022-10-12T11:26:19.372Z,23.17
2022-10-12T11:28:46.257Z,20.55
2022-10-12T11:31:19.680Z,22.52
2022-10-12T11:33:47.285Z,19.33
2022-10-12T11:36:17.392Z,19.63
2022-10-12T11:38:47.825Z,21.30
2022-10-12T11:41:34.801Z,15.82
2022-10-12T11:44:07.414Z,20.23
2022-10-12T11:46:36.710Z,17.35
2022-10-12T11:49:09.529Z,18.05
2022-10-12T11:51:36.393Z,19.42
2022-10-12T11:54:13.172Z,16.42
2022-10-12T11:56:45.305Z,16.60
2022-10-12T11:59:16.418Z,19.10
2022-10-12T12:01:54.297Z,24.08
2022-10-12T12:04:44.304Z,16.05
2022-10-12T12:07:41.523Z,15.93
2022-10-12T12:10:45.521Z,14.57
2022-10-12T12:13:23.789Z,16.00
2022-10-12T12:16:30.168Z,20.67
2022-10-12T12:19:17.332Z,15.68
2022-10-12T12:22:18.033Z,15.32
2022-10-12T12:25:16.099Z,15.75
2022-10-12T12:27:45.206Z,17.08
2022-10-12T12:30:26.019Z,15.18
2022-10-12T12:32:55.818Z,15.43
2022-10-12T12:35:27.928Z,14.20
2022-10-12T12:38:08.372Z,17.27
2022-10-12T12:40:35.747Z,17.63
2022-10-12T12:43:35.058Z,16.17
2022-10-12T12:46:05.477Z,13.63
2022-10-12T12:49:11.911Z,16.80
2022-10-12T12:51:42.443Z,16.88
2022-10-12T12:54:21.628Z,20.63
2022-10-12T12:57:12.016Z,14.77
2022-10-12T13:00:20.598Z,12.57
2022-10-12T13:03:27.955Z,15.10
2022-10-12T13:06:17.555Z,15.93
2022-10-12T13:09:00.399Z,15.07
2022-10-12T13:11:55.063Z,14.75
2022-10-12T13:14:41.354Z,16.15
2022-10-12T13:17:34.028Z,24.60
2022-10-12T13:20:06.241Z,52.72
2022-10-12T13:22:35.444Z,44.25
2022-10-12T13:25:04.518Z,26.52
2022-10-12T13:27:37.002Z,32.33
2022-10-12T13:30:14.862Z,18.80
2022-10-12T13:32:49.491Z,25.70
2022-10-12T13:35:29.070Z,18.35
2022-10-12T13:38:06.480Z,19.73
2022-10-12T13:40:36.953Z,22.35
2022-10-12T13:43:28.520Z,17.52
2022-10-12T13:45:56.085Z,41.97
2022-10-12T13:48:46.613Z,37.28
2022-10-12T13:51:23.034Z,22.92
2022-10-12T13:53:49.808Z,29.23
2022-10-12T13:56:19.443Z,18.50
2022-10-12T13:58:46.367Z,47.58
2022-10-12T14:01:13.874Z,20.85
2022-10-12T14:03:42.505Z,18.52
2022-10-12T14:06:25.846Z,45.30
2022-10-12T14:08:53.799Z,51.55
2022-10-12T14:11:20.774Z,44.10
2022-10-12T14:13:47.735Z,51.13
2022-10-12T14:16:14.707Z,64.95
2022-10-12T14:18:43.142Z,36.97
2022-10-12T14:21:18.251Z,22.17
2022-10-12T14:23:48.839Z,15.98
2022-10-12T14:26:28.895Z,21.10
2022-10-12T14:28:56.938Z,14.85
2022-10-12T14:31:48.905Z,14.77
2022-10-12T14:34:39.302Z,17.63
2022-10-12T14:37:27.418Z,17.48
2022-10-12T14:39:56.635Z,21.65
2022-10-12T14:42:31.126Z,18.67
2022-10-12T14:44:58.547Z,14.68
2022-10-12T14:47:28.359Z,17.30
2022-10-12T14:49:57.380Z,14.90
2022-10-12T14:52:28.507Z,17.20
2022-10-12T14:54:58.373Z,15.20
2022-10-12T14:57:27.381Z,20.40
2022-10-12T14:59:54.238Z,18.38
2022-10-12T15:02:24.019Z,18.85
2022-10-12T15:04:50.793Z,15.70
2022-10-12T15:07:20.063Z,18.15
2022-10-12T15:09:48.275Z,16.63
2022-10-12T15:12:19.073Z,22.10
2022-10-12T15:14:46.207Z,19.13
2022-10-12T15:17:14.690Z,22.67
2022-10-12T15:19:43.007Z,21.10
2022-10-12T15:22:13.130Z,21.67
2022-10-12T15:24:39.871Z,27.83
2022-10-12T15:27:06.802Z,22.30
2022-10-12T15:29:35.010Z,17.60
2022-10-12T15:32:01.742Z,34.72
2022-10-12T15:34:28.510Z,22.00
2022-10-12T15:36:55.320Z,41.20
2022-10-12T15:39:22.211Z,35.45
2022-10-12T15:41:48.966Z,22.55
2022-10-12T15:44:16.600Z,20.75
2022-10-12T15:46:45.098Z,19.60
2022-10-12T15:49:13.370Z,19.42
2022-10-12T15:51:47.365Z,16.52
2022-10-12T15:54:14.522Z,21.58
2022-10-12T15:56:41.287Z,22.52
2022-10-12T15:59:08.055Z,23.13
2022-10-12T16:01:36.069Z,24.63
2022-10-12T16:04:06.111Z,18.67
2022-10-12T16:06:33.112Z,22.05
2022-10-12T16:08:59.995Z,23.25
2022-10-12T16:11:26.884Z,20.83
2022-10-12T16:13:56.661Z,23.17
2022-10-12T16:16:24.256Z,19.50
2022-10-12T16:18:51.662Z,23.08
2022-10-12T16:21:19.719Z,23.10
2022-10-12T16:23:46.493Z,21.45
2022-10-12T16:26:15.126Z,23.55
2022-10-12T16:28:42.275Z,22.80
2022-10-12T16:31:10.892Z,23.13
2022-10-12T16:33:37.670Z,23.08
2022-10-12T16:36:09.444Z,25.38
2022-10-12T16:38:37.550Z,24.83
2022-10-12T16:41:12.263Z,23.23
2022-10-12T16:43:39.488Z,27.27
2022-10-12T16:46:06.804Z,25.60
2022-10-12T16:48:33.858Z,27.92
2022-10-12T16:51:00.723Z,28.58
2022-10-12T16:53:27.589Z,30.05
2022-10-12T16:55:55.783Z,24.60
2022-10-12T16:58:22.614Z,30.45
2022-10-12T17:00:49.464Z,32.80
2022-10-12T17:03:16.250Z,30.23
2022-10-12T17:05:42.988Z,33.72
2022-10-12T17:08:14.154Z,30.13
2022-10-12T17:10:42.978Z,29.05
2022-10-12T17:13:11.743Z,34.00
2022-10-12T17:15:40.033Z,29.55
2022-10-12T17:18:06.795Z,34.50
2022-10-12T17:20:33.529Z,28.58
2022-10-12T17:23:00.255Z,34.78
2022-10-12T17:25:27.045Z,32.58
2022-10-12T17:27:53.910Z,30.80
2022-10-12T17:30:21.996Z,33.15
2022-10-12T17:32:48.794Z,38.60
2022-10-12T17:35:15.661Z,40.13
2022-10-12T17:37:42.371Z,39.22
2022-10-12T17:40:10.086Z,37.42
2022-10-12T17:42:36.867Z,37.30
2022-10-12T17:45:04.330Z,36.75
2022-10-12T17:47:32.473Z,31.58
2022-10-12T17:49:59.176Z,33.00
2022-10-12T17:52:25.918Z,30.98
2022-10-12T17:54:52.752Z,34.70
2022-10-12T17:57:20.111Z,33.88
2022-10-12T17:59:47.273Z,38.78
2022-10-12T18:02:14.043Z,33.22
2022-10-12T18:04:42.211Z,29.92
2022-10-12T18:07:08.971Z,33.42
2022-10-12T18:09:35.834Z,30.05
2022-10-12T18:14:33.639Z,31.67
2022-10-12T18:17:00.447Z,35.58
2022-10-12T18:19:27.271Z,28.92
2022-10-12T18:21:55.375Z,35.17
2022-10-12T18:24:22.256Z,32.60
2022-10-12T18:26:49.226Z,30.75
2022-10-12T18:29:16.225Z,33.05
2022-10-12T18:31:43.089Z,31.73
2022-10-12T18:34:09.948Z,28.02
2022-10-12T18:36:36.750Z,36.58
2022-10-12T18:39:05.311Z,27.77
2022-10-12T18:41:32.407Z,29.77
2022-10-12T18:44:00.636Z,31.77
2022-10-12T18:46:29.375Z,30.88
2022-10-12T18:48:56.542Z,31.00
2022-10-12T18:51:25.973Z,31.48
2022-10-12T18:53:52.706Z,37.20
2022-10-12T18:56:21.069Z,33.70
2022-10-12T18:58:47.873Z,31.90
2022-10-12T19:01:17.677Z,35.72
2022-10-12T19:03:44.826Z,35.05
2022-10-12T19:06:14.412Z,25.02
2022-10-12T19:08:41.525Z,26.60
2022-10-12T19:11:08.875Z,24.48
2022-10-12T19:13:37.890Z,24.05
2022-10-12T19:16:07.044Z,26.05
2022-10-12T19:18:33.865Z,24.38
2022-10-12T19:21:03.973Z,26.00
2022-10-12T19:23:30.719Z,25.10
2022-10-12T19:25:57.494Z,24.05
2022-10-12T19:28:24.279Z,25.27
2022-10-12T19:30:52.358Z,24.05
2022-10-12T19:33:19.101Z,24.58
2022-10-12T19:35:45.814Z,25.33
2022-10-12T19:38:12.551Z,21.42
2022-10-12T19:40:39.255Z,22.15
2022-10-12T19:43:06.002Z,21.65
2022-10-12T19:45:38.057Z,18.45
2022-10-12T19:48:06.534Z,23.58
2022-10-12T19:50:33.336Z,25.75
2022-10-12T19:53:00.155Z,26.10
2022-10-12T19:55:26.991Z,27.13
2022-10-12T19:57:53.997Z,22.02
2022-10-12T20:00:21.017Z,19.73
2022-10-12T20:02:47.723Z,29.10
2022-10-12T20:05:15.927Z,21.20
2022-10-12T20:07:42.692Z,24.35
2022-10-12T20:10:09.827Z,20.08
2022-10-12T20:12:36.554Z,16.55
2022-10-12T20:15:03.642Z,23.35
2022-10-12T20:17:30.374Z,23.48
2022-10-12T20:19:57.115Z,21.05
2022-10-12T20:22:25.275Z,21.20
2022-10-12T20:24:52.136Z,19.85
2022-10-12T20:27:18.878Z,24.50
2022-10-12T20:29:45.663Z,25.85
2022-10-12T20:32:12.475Z,19.33
2022-10-12T20:34:39.231Z,15.60
2022-10-12T20:37:05.987Z,15.25
2022-10-12T20:39:34.221Z,14.25
2022-10-12T20:42:00.985Z,14.85
2022-10-12T20:44:27.943Z,17.77
2022-10-12T20:46:54.734Z,17.10
2022-10-12T20:49:21.485Z,18.80
2022-10-12T20:51:48.243Z,21.52
2022-10-12T20:54:15.985Z,23.33
2022-10-12T20:56:44.738Z,23.45
2022-10-12T20:59:11.721Z,28.17
2022-10-12T21:01:38.459Z,27.05
2022-10-12T21:04:05.404Z,28.13
2022-10-12T21:06:32.108Z,25.55
2022-10-12T21:08:58.819Z,21.05
2022-10-12T21:11:25.920Z,24.95
2022-10-12T21:13:54.698Z,22.45
2022-10-12T21:16:21.394Z,20.02
2022-10-12T21:18:48.512Z,27.77
2022-10-12T21:21:16.735Z,24.60
2022-10-12T21:23:44.673Z,25.85
2022-10-12T21:26:14.465Z,22.20
2022-10-12T21:28:41.535Z,20.15
2022-10-12T21:31:10.645Z,25.92
2022-10-12T21:33:38.547Z,21.08
2022-10-12T21:36:09.975Z,25.15
2022-10-12T21:38:36.745Z,25.75
2022-10-12T21:41:03.819Z,20.30
2022-10-12T21:43:30.619Z,22.48
2022-10-12T21:46:02.106Z,25.33
2022-10-12T21:48:30.551Z,23.30
2022-10-12T21:50:57.608Z,20.73
2022-10-12T21:53:24.399Z,18.98
2022-10-12T21:55:51.218Z,20.40
2022-10-12T21:58:18.010Z,15.88
2022-10-12T22:00:44.902Z,16.67
2022-10-12T22:03:11.865Z,18.10
2022-10-12T22:05:40.803Z,16.63
2022-10-12T22:08:07.756Z,20.10
2022-10-12T22:10:35.354Z,20.30
2022-10-12T22:13:17.354Z,15.18
2022-10-12T22:15:44.086Z,18.88
2022-10-12T22:18:10.921Z,17.98
2022-10-12T22:20:38.021Z,15.77
2022-10-12T22:23:06.105Z,15.20
2022-10-12T22:25:32.840Z,17.23
2022-10-12T22:27:59.555Z,13.80
2022-10-12T22:30:26.260Z,19.25
2022-10-12T22:32:53.119Z,16.60
2022-10-12T22:35:19.831Z,14.20
2022-10-12T22:37:46.577Z,16.27
2022-10-12T22:40:14.723Z,15.45
2022-10-12T22:42:41.587Z,15.48
2022-10-12T22:45:09.374Z,13.65
2022-10-12T22:47:36.083Z,15.93
2022-10-12T22:50:02.943Z,15.20
2022-10-12T22:52:29.673Z,14.05
2022-10-12T22:54:56.418Z,15.13
2022-10-12T22:57:24.541Z,14.77
2022-10-12T22:59:51.297Z,16.45
2022-10-12T23:02:18.289Z,15.95
2022-10-12T23:04:47.016Z,14.90
2022-10-12T23:07:13.747Z,13.73
2022-10-12T23:09:40.470Z,13.48
2022-10-12T23:12:07.362Z,12.27
2022-10-12T23:14:35.431Z,16.42
2022-10-12T23:17:02.127Z,17.83
2022-10-12T23:19:28.967Z,14.13
2022-10-12T23:21:55.655Z,13.30
2022-10-12T23:24:22.376Z,12.82
2022-10-12T23:26:49.107Z,14.40
2022-10-12T23:29:15.989Z,14.93
2022-10-12T23:31:44.089Z,15.63
2022-10-12T23:34:11.236Z,16.35
2022-10-12T23:36:38.003Z,16.15
2022-10-12T23:39:05.539Z,15.52
2022-10-12T23:41:32.401Z,16.27
2022-10-12T23:43:59.174Z,13.75
2022-10-12T23:46:25.981Z,12.73
2022-10-12T23:48:54.117Z,13.57
2022-10-12T23:51:20.852Z,14.45
2022-10-12T23:53:47.629Z,13.15
2022-10-12T23:56:14.647Z,15.50
2022-10-12T23:58:41.534Z,15.55
